Terminal Aerodrome Forecast
Issued by NWS Upton, NY

Home | Current Version | Previous Version | Text Only | Print | Product List | Glossary On
Versions: 1 2 3 4 5 6 7 8 9 10 11 12 13 14 15 16 17 18 19 20 21 22 23 24 25 26 27 28 29 30
994
FTUS41 KOKX 032140 AAB
TAFISP
TAF AMD
KISP 032140Z 0322/0418 05009KT 4SM BR OVC008
     FM040000 05006KT 2SM BR OVC008
     FM041400 07010KT 2SM -SHRA BR OVC008=

USA.gov is the U.S. government's official web portal to all federal, state and local government web resources and services.